Park Falls, Wisconsin
Current Conditions -  °F | °C
As of 4:15 AM on Tuesday 21 Oct 2014 (Local Time) from KPBH Reporting Station
Overcast Overcast  
Wind Chill: 35°   Ceiling: 1900
Heat Index: 40°   Visibility: 10mi
Dew Point: 34°   Wind: 7mph
Humidity: 80%   Direction: 20°NNE
Pressure: 30.14"   Gusts: NA
Location:  45.93°N, 90.44°W
Report Text: KPBH 210915Z AUTO 02006KT 10SM OVC019 04/01 A3014 RMK AO2 T00420011
Loading
Personal Weather Stations






























Interactive Weather Map
Tropical Storm Tracking
New forecast layout! Learn more

10-Day Weather Forecast

Advertisements
Track Severe Weather on mobile